KJAC

Jackson Hole Airport

Jackson, Wyoming, USA
METAR KJAC 190556Z AUTO 23005KT 10SM CLR M07/M09 A3028 RMK AO2 SLP303 60000 T10721089 11011 21072 52008 FZRANO
Observed Flight Rules
Jan-19 @ 05:56 UTC (25 minutes ago) Visual Flight Rules
Wind Visibility Clouds
230° at 5 knots 10 miles
  • Clear skies
Temperatures Readings
Current -7°C / 19°F
Dewpoint -9°C / 16°F
Humidity 86%
Altimeter 30.28" Hg
Pressure 1030.3 hPa
Elevation 1961
METAR KJAC 190556Z AUTO 23005KT 10SM CLR M07/M09 A3028 RMK AO2 SLP303 60000 T10721089 11011 21072 52008 FZRANO
Observed Flight Rules
Jan-19 @ 05:56 UTC
(25 minutes ago)
VFR
Wind Visibility
230° at 5 knots 10 miles
Clouds
  • Clear skies
Temperature Dewpoint
-7°C / 19°F -9°C / 16°F
Humidity Altimeter Pressure
86% 30.28" Hg 1030.3 hPa